KILG/ILG METAR and TAF weather

Enter ICAO airport designator
Station Type Date Time Source
KILG METAR 2019/12/08 16:51 UTC NOAA

KILG 081651Z 17008KT 10SM CLR 05/M09 A3050 RMK AO2 SLP330 T00501089


Station Type Date Time Source
KILG Decoded METAR 2019/12/08 16:51 UTC NOAA

WILMINGTON NEW CASTLE CO, DE, United States (KILG) 39-40N 075-36W 28M
Dec 08, 2019 - 11:51 AM EST / 2019.12.08 1651 UTC
Wind: from the S (170 degrees) at 9 MPH (8 KT):0
Visibility: 10 mile(s):0
Sky conditions: clear
Temperature: 41.0 F (5.0 C)
Dew Point: 16.0 F (-8.9 C)
Relative Humidity: 35%
Pressure (altimeter): 30.5 in. Hg (1032 hPa)
ob: KILG 081651Z 17008KT 10SM CLR 05/M09 A3050 RMK AO2 SLP330 T00501089
cycle: 17

Station Type Date Time Source
KILG TAF 2019/12/08 12:33 UTC NOAA

TAF KILG 081130Z 0812/0912 VRB03KT P6SM SCT250
FM081500 16008KT P6SM BKN250
FM090000 16005KT P6SM BKN080
FM090300 VRB03KT P6SM BKN050
FM090600 VRB03KT 6SM -RADZ BKN030
FM091000 VRB03KT 3SM -RA OVC015 WS020/20035KT

Example: see airport list